Flight Track Log - Related Links

Times and Time Zones

All times are in EDT time to prevent confusion due to time zone crossing. See the AAY804 flight status page for this flight to view local times or setup timezone preferences in your user account.

Time Position Orientation Groundspeed Altitude Reporting Facility
EDT Latitude Longitude Course Direction KTS MPH feet Rate Location/Type
Thu 07:08:00 AM 28.0512 -82.7086 348° North  Level FlightAware Approximate
Thu 07:09:35 AM 27.9167 -82.6833 350° North 142 163 800  Level Tampa TRACON
Thu 07:10:23 AM 27.9667 -82.6833 360° North 175 201 2,200 1,611 Climbing Tampa TRACON
Thu 07:11:23 AM 28.0167 -82.6833 360° North 268 308 3,700 2,308 Climbing Tampa TRACON
Thu 07:12:59 AM 28.1389 -82.7031 352° North 276 318 8,200 2,637 Climbing Miami Center
Thu 07:14:00 AM 28.2203 -82.7217 349° North 291 335 10,600 1,905 Climbing Miami Center
Thu 07:15:00 AM 28.6652 -82.8430 350° North  Level FlightAware Approximate
Thu 07:15:05 AM 28.3167 -82.7486 346° North 307 353 12,200  Level Jacksonville Center
Thu 07:16:05 AM 28.4169 -82.7722 348° North 339 390 14,700 2,350 Climbing Jacksonville Center
Thu 07:17:05 AM 28.5172 -82.7933 350° North 358 412 16,900 2,000 Climbing Jacksonville Center
Thu 07:18:05 AM 28.6217 -82.8217 347° North 370 426 18,700 1,750 Climbing Jacksonville Center
Thu 07:19:05 AM 28.7258 -82.8428 350° North 375 432 20,400 1,700 Climbing Jacksonville Center
Thu 07:20:05 AM 28.8322 -82.8689 348° North 380 437 22,100 1,200 Climbing Jacksonville Center
Thu 07:21:05 AM 28.9472 -82.8950 349° North 396 456 22,800 900 Climbing Jacksonville Center
Thu 07:22:05 AM 29.0642 -82.9400 341° North 416 479 23,900 1,150 Climbing Jacksonville Center
Thu 07:23:05 AM 29.1831 -82.9878 341° North 435 501 25,100 1,150 Climbing Jacksonville Center
Thu 07:24:05 AM 29.3039 -83.0378 340° North 449 517 26,200 1,050 Climbing Jacksonville Center
Thu 07:25:05 AM 29.4250 -83.0881 340° North 454 522 27,200 850 Climbing Jacksonville Center
Thu 07:26:05 AM 29.5669 -83.1481 340° North 483 556 27,900 900 Climbing Jacksonville Center
Thu 07:27:05 AM 29.6942 -83.1986 341° North 488 562 29,000 1,150 Climbing Jacksonville Center
Thu 07:28:05 AM 29.8192 -83.2469 341° North 486 559 30,200 1,300 Climbing Jacksonville Center
Thu 07:29:05 AM 29.9444 -83.3000 340° North 481 554 31,600 1,300 Climbing Jacksonville Center
Thu 07:30:05 AM 30.0675 -83.3486 341° North 476 548 32,800 1,100 Climbing Jacksonville Center
Thu 07:31:05 AM 30.1944 -83.4019 340° North 476 548 33,800 1,100 Climbing Jacksonville Center
Thu 07:32:05 AM 30.3175 -83.4533 340° North 470 541 35,000 1,050 Climbing Jacksonville Center
Thu 07:33:05 AM 30.4406 -83.5022 341° North 470 541 35,900 450 Climbing Jacksonville Center
Thu 07:34:05 AM 30.5633 -83.5536 340° North 470 541 35,900 50 Level Jacksonville Center
Thu 07:35:05 AM 30.6800 -83.6028 340° North 457 526 36,000 50 Climbing Jacksonville Center
Thu 07:36:05 AM 30.7781 -83.6444 340° North 457 526 36,000  Level Jacksonville Center
Thu 07:37:05 AM 30.9111 -83.6989 341° North 457 526 36,000  Level Jacksonville Center
Thu 07:38:05 AM 31.0319 -83.7508 340° North 457 526 36,000  Level Jacksonville Center
Thu 07:39:05 AM 31.1506 -83.8028 339° North 462 532 36,000  Level Jacksonville Center
Thu 07:40:05 AM 31.2714 -83.8550 340° North 462 532 36,000  Level Jacksonville Center
Thu 07:41:31 AM 31.4544 -83.9342 340° North 466 536 36,000  Level Atlanta Center
Thu 07:42:31 AM 31.5650 -83.9731 343° North 461 531 36,000  Level Atlanta Center
Thu 07:43:31 AM 31.6903 -84.0022 349° North 461 531 36,000  Level Atlanta Center
Thu 07:44:31 AM 31.8156 -84.0292 350° North 456 525 36,000  Level Atlanta Center
Thu 07:45:31 AM 31.9408 -84.0536 351° North 450 518 36,000  Level Atlanta Center
Thu 07:46:31 AM 32.0681 -84.0806 350° North 450 518 36,000  Level Atlanta Center
Thu 07:47:31 AM 32.1933 -84.1100 349° North 450 518 36,000 -250 Level Atlanta Center
Thu 07:48:31 AM 32.3186 -84.1372 350° North 455 524 35,500 -650 Descending Atlanta Center
Thu 07:49:31 AM 32.4458 -84.1669 349° North 460 529 34,700 -900 Descending Atlanta Center
Thu 07:50:31 AM 32.5731 -84.1942 350° North 460 529 33,700 -1,000 Descending Atlanta Center
Thu 07:51:31 AM 32.7044 -84.2264 348° North 470 541 32,700 -1,000 Descending Atlanta Center
Thu 07:52:31 AM 32.8297 -84.2539 350° North 470 541 31,700 -1,150 Descending Atlanta Center
Thu 07:53:31 AM 32.9550 -84.2839 349° North 460 529 30,400 -1,350 Descending Atlanta Center
Thu 07:54:31 AM 33.0883 -84.3117 350° North 446 513 29,000 -1,400 Descending Atlanta Center
Thu 07:55:31 AM 33.1886 -84.3367 348° North 432 497 27,600 -1,300 Descending Atlanta Center
Thu 07:56:31 AM 33.2992 -84.3619 349° North 413 475 26,400 -1,150 Descending Atlanta Center
Thu 07:57:31 AM 33.4075 -84.3872 349° North 407 468 25,300 4,300 Descending Atlanta Center
Thu 07:58:31 AM 33.5139 -84.4125 349° North 401 461 35,000 -650 Climbing Atlanta Center
Thu 07:59:31 AM 33.6286 -84.4406 348° North 390 449 24,000 -5,500 Descending Atlanta Center
Thu 08:00:31 AM 33.7308 -84.4883 339° North 382 440 24,000  Level Atlanta Center
Thu 08:01:31 AM 33.8225 -84.5389 335° Northwest 378 435 24,000  Level Atlanta Center
Thu 08:02:31 AM 33.9161 -84.5894 336° Northwest 383 441 24,000 -550 Level Atlanta Center
Thu 08:03:31 AM 34.0119 -84.6428 335° Northwest 378 435 22,900 -1,600 Descending Atlanta Center
Thu 08:04:31 AM 34.1056 -84.6936 336° Northwest 378 435 20,800 -2,200 Descending Atlanta Center
Thu 08:05:31 AM 34.1992 -84.7469 335° Northwest 373 429 18,500 -1,950 Descending Atlanta Center
Thu 08:06:31 AM 34.2886 -84.7931 337° Northwest 366 421 16,900 -1,750 Descending Atlanta Center
Thu 08:07:31 AM 34.3739 -84.8417 335° Northwest 350 403 15,000 -1,750 Descending Atlanta Center
Thu 08:08:31 AM 34.4633 -84.8853 338° Northwest 345 397 13,400 -1,700 Descending Atlanta Center
Thu 08:09:31 AM 34.5444 -84.9314 335° Northwest 332 382 11,600 -1,200 Descending Atlanta Center
Thu 08:10:31 AM 34.6233 -84.9753 335° Northwest 325 374 11,000 -900 Descending Atlanta Center
Thu 08:11:31 AM 34.6900 -85.0139 335° Northwest 308 354 9,800 -1,600 Descending Atlanta Center
Thu 08:12:31 AM 34.7647 -85.0553 336° Northwest 294 338 7,800 -1,750 Descending Atlanta Center
Thu 08:13:31 AM 34.8375 -85.0839 342° North 282 325 6,300 -1,550 Descending Atlanta Center
Thu 08:14:31 AM 34.9128 -85.0697 North 267 307 4,700 -1,150 Descending Atlanta Center
Thu 08:15:31 AM 34.9858 -85.0528 11° North 267 307 4,000 -350 Descending Atlanta Center
Thu 08:16:31 AM 35.0611 -85.0386 North 267 307 4,000  Level Atlanta Center
Thu 08:17:31 AM 35.1239 -85.0242 11° North 255 293 4,000  Level Atlanta Center
Thu 08:18:31 AM 35.1867 -85.0094 11° North 237 273 4,000  Level Atlanta Center
Thu 08:20:00 AM 35.0800 -85.1421 226° Southwest  Level FlightAware Approximate
Thu 08:27:00 AM 35.0333 -85.2000 241° Southwest  Level FlightAware Approximate

Login

Don't have an account? Register now (free) for customized features, flight alerts, and more!